createdAt,value
2023-09-27T00:01:04.329Z,91.43
2023-09-27T00:03:33.946Z,91.59
2023-09-27T00:06:02.315Z,91.76
2023-09-27T00:08:31.231Z,91.95
2023-09-27T00:11:00.092Z,92.06
2023-09-27T00:13:28.621Z,92.12
2023-09-27T00:16:01.158Z,92.26
2023-09-27T00:18:31.973Z,92.50
2023-09-27T00:21:04.462Z,92.72
2023-09-27T00:23:34.576Z,92.74
2023-09-27T00:26:04.068Z,92.70
2023-09-27T00:28:32.429Z,92.67
2023-09-27T00:31:02.176Z,92.59
2023-09-27T00:33:31.109Z,92.55
2023-09-27T00:35:59.525Z,92.64
2023-09-27T00:38:29.837Z,92.83
2023-09-27T00:40:58.025Z,92.96
2023-09-27T00:43:32.275Z,92.91
2023-09-27T00:46:03.450Z,93.02
2023-09-27T00:48:36.840Z,93.12
2023-09-27T00:51:06.343Z,93.16
2023-09-27T00:53:39.066Z,93.26
2023-09-27T00:56:09.988Z,93.34
2023-09-27T00:58:41.080Z,93.47
2023-09-27T01:01:12.707Z,93.59
2023-09-27T01:03:42.686Z,93.60
2023-09-27T01:06:12.404Z,93.44
2023-09-27T01:08:42.674Z,93.42
2023-09-27T01:11:10.818Z,93.41
2023-09-27T01:13:40.080Z,93.34
2023-09-27T01:16:13.121Z,93.18
2023-09-27T01:18:41.590Z,93.01
2023-09-27T01:21:10.780Z,92.97
2023-09-27T01:23:42.902Z,92.89
2023-09-27T01:26:12.544Z,92.86
2023-09-27T01:28:42.477Z,92.92
2023-09-27T01:31:10.777Z,92.99
2023-09-27T01:33:41.807Z,92.97
2023-09-27T01:36:12.964Z,92.90
2023-09-27T01:38:43.023Z,92.79
2023-09-27T01:41:12.815Z,92.90
2023-09-27T01:43:44.921Z,93.04
2023-09-27T01:46:15.225Z,93.10
2023-09-27T01:48:43.541Z,92.95
2023-09-27T01:51:11.632Z,92.99
2023-09-27T01:53:40.221Z,93.42
2023-09-27T01:56:11.908Z,93.64
2023-09-27T01:58:40.239Z,93.96
2023-09-27T02:01:08.446Z,94.04
2023-09-27T02:03:37.210Z,94.07
2023-09-27T02:06:06.835Z,94.10
2023-09-27T02:08:36.703Z,94.08
2023-09-27T02:11:05.375Z,93.91
2023-09-27T02:13:35.379Z,94.01
2023-09-27T02:16:03.965Z,94.14
2023-09-27T02:18:32.246Z,94.18
2023-09-27T02:21:00.896Z,94.26
2023-09-27T02:23:31.959Z,94.34
2023-09-27T02:26:06.511Z,94.30
2023-09-27T02:28:36.771Z,94.11
2023-09-27T02:31:11.964Z,93.83
2023-09-27T02:33:40.563Z,93.73
2023-09-27T02:36:11.571Z,93.57
2023-09-27T02:38:41.790Z,93.73
2023-09-27T02:41:11.364Z,93.87
2023-09-27T02:43:41.926Z,93.85
2023-09-27T02:46:10.347Z,93.82
2023-09-27T02:48:39.855Z,93.71
2023-09-27T02:51:09.811Z,93.61
2023-09-27T02:53:41.312Z,93.66
2023-09-27T02:56:10.179Z,93.71
2023-09-27T02:58:41.699Z,93.74
2023-09-27T03:01:13.355Z,93.80
2023-09-27T03:03:44.015Z,93.86
2023-09-27T03:06:16.016Z,94.07
2023-09-27T03:08:45.782Z,94.20
2023-09-27T03:11:14.709Z,94.48
2023-09-27T03:13:43.033Z,94.56
2023-09-27T03:16:13.292Z,94.66
2023-09-27T03:18:44.068Z,94.64
2023-09-27T03:21:13.538Z,94.73
2023-09-27T03:23:42.161Z,94.78
2023-09-27T03:26:10.223Z,94.85
2023-09-27T03:28:38.468Z,94.75
2023-09-27T03:31:07.768Z,94.78
2023-09-27T03:33:38.129Z,95.06
2023-09-27T03:36:08.700Z,95.08
2023-09-27T03:38:38.877Z,95.09
2023-09-27T03:41:10.231Z,95.06
2023-09-27T03:43:39.191Z,94.93
2023-09-27T03:46:09.932Z,94.97
2023-09-27T03:48:40.146Z,95.05
2023-09-27T03:51:09.792Z,95.06
2023-09-27T03:53:38.532Z,95.15
2023-09-27T03:56:06.854Z,95.17
2023-09-27T03:58:36.061Z,95.21
2023-09-27T04:01:05.403Z,95.19
2023-09-27T04:03:35.019Z,95.20
2023-09-27T04:06:06.697Z,95.26
2023-09-27T04:08:36.479Z,95.29
2023-09-27T04:11:06.533Z,95.38
2023-09-27T04:13:35.427Z,95.41
2023-09-27T04:16:05.012Z,95.35
2023-09-27T04:18:33.559Z,95.32
2023-09-27T04:21:12.226Z,95.29
2023-09-27T04:23:41.364Z,95.33
2023-09-27T04:26:10.367Z,95.32
2023-09-27T04:28:42.521Z,95.30
2023-09-27T04:31:11.212Z,95.26
2023-09-27T04:33:42.467Z,95.22
2023-09-27T04:36:16.778Z,95.19
2023-09-27T04:38:46.777Z,95.13
2023-09-27T04:41:19.208Z,95.14
2023-09-27T04:43:51.826Z,95.23
2023-09-27T04:46:23.181Z,95.24
2023-09-27T04:48:53.497Z,95.22
2023-09-27T04:51:25.488Z,95.18
2023-09-27T04:53:56.402Z,95.20
2023-09-27T04:56:24.886Z,95.12
2023-09-27T04:58:56.737Z,95.18
2023-09-27T05:01:28.440Z,95.16
2023-09-27T05:03:58.985Z,95.13
2023-09-27T05:06:31.787Z,95.11
2023-09-27T05:09:03.629Z,95.24
2023-09-27T05:11:35.011Z,95.22
2023-09-27T05:14:13.047Z,95.24
2023-09-27T05:16:45.371Z,95.31
2023-09-27T05:19:14.393Z,95.38
2023-09-27T05:21:47.246Z,95.44
2023-09-27T05:24:19.841Z,95.60
2023-09-27T05:26:49.351Z,95.68
2023-09-27T05:29:17.711Z,95.70
2023-09-27T05:31:46.247Z,95.79
2023-09-27T05:34:14.464Z,96.00
2023-09-27T05:36:42.785Z,96.11
2023-09-27T05:39:19.058Z,95.98
2023-09-27T05:41:50.555Z,95.60
2023-09-27T05:44:18.893Z,95.30
2023-09-27T05:46:47.210Z,95.08
2023-09-27T05:49:16.330Z,94.95
2023-09-27T05:51:44.829Z,94.95
2023-09-27T05:54:15.599Z,94.90
2023-09-27T05:56:47.140Z,95.13
2023-09-27T05:59:15.869Z,95.08
2023-09-27T06:01:48.740Z,94.84
2023-09-27T06:04:48.048Z,94.49
2023-09-27T06:07:18.891Z,94.03
2023-09-27T06:09:50.490Z,92.93
2023-09-27T06:12:19.512Z,91.67
2023-09-27T06:14:50.144Z,90.45
2023-09-27T06:17:28.737Z,89.41
2023-09-27T06:20:01.591Z,88.29
2023-09-27T06:22:31.423Z,87.06
2023-09-27T06:25:02.417Z,85.10
2023-09-27T06:27:32.141Z,82.82
2023-09-27T06:30:01.932Z,80.66
2023-09-27T06:32:30.155Z,78.19
2023-09-27T06:34:59.515Z,77.79
2023-09-27T06:37:30.444Z,77.72
2023-09-27T06:40:10.884Z,77.33
2023-09-27T06:42:49.781Z,76.50
2023-09-27T06:45:22.126Z,75.86
2023-09-27T06:47:52.557Z,75.46
2023-09-27T06:50:21.465Z,75.22
2023-09-27T06:52:57.829Z,74.96
2023-09-27T06:55:32.938Z,75.03
2023-09-27T06:58:08.553Z,75.09
2023-09-27T07:00:44.181Z,75.19
2023-09-27T07:03:13.307Z,75.07
2023-09-27T07:05:47.853Z,74.95
2023-09-27T07:08:23.796Z,74.66
2023-09-27T07:11:00.795Z,74.02
2023-09-27T07:13:32.611Z,73.11
2023-09-27T07:16:01.662Z,72.03
2023-09-27T07:18:30.085Z,71.09
2023-09-27T07:21:01.165Z,70.06
2023-09-27T07:23:33.125Z,69.35
2023-09-27T07:26:05.792Z,68.91
2023-09-27T07:28:38.266Z,68.21
2023-09-27T07:31:07.552Z,67.23
2023-09-27T07:33:39.805Z,66.40
2023-09-27T07:36:14.150Z,65.63
2023-09-27T07:38:48.201Z,65.66
2023-09-27T07:41:21.874Z,64.04
2023-09-27T07:43:57.104Z,63.74
2023-09-27T07:46:26.509Z,62.96
2023-09-27T07:48:54.971Z,62.58
2023-09-27T07:51:27.203Z,61.82
2023-09-27T07:53:56.544Z,61.34
2023-09-27T07:56:30.758Z,60.76
2023-09-27T07:59:02.551Z,60.00
2023-09-27T08:01:30.689Z,59.30
2023-09-27T08:04:10.091Z,59.19
2023-09-27T08:06:40.754Z,58.60
2023-09-27T08:09:20.275Z,58.40
2023-09-27T08:11:52.931Z,58.11
2023-09-27T08:14:23.290Z,57.39
2023-09-27T08:16:55.430Z,56.87
2023-09-27T08:19:24.688Z,55.56
2023-09-27T08:21:52.864Z,55.20
2023-09-27T08:24:21.206Z,54.63
2023-09-27T08:26:49.970Z,53.55
2023-09-27T08:29:19.863Z,52.93
2023-09-27T08:31:50.029Z,52.63
2023-09-27T08:34:19.754Z,50.88
2023-09-27T08:36:48.225Z,50.70
2023-09-27T08:39:21.591Z,50.08
2023-09-27T08:41:52.056Z,50.77
2023-09-27T08:44:21.272Z,50.76
2023-09-27T08:46:51.907Z,50.33
2023-09-27T08:49:20.702Z,51.00
2023-09-27T08:51:50.854Z,51.29
2023-09-27T08:54:22.532Z,50.32
2023-09-27T08:56:52.075Z,51.80
2023-09-27T08:59:21.173Z,51.57
2023-09-27T09:01:55.217Z,51.27
2023-09-27T09:04:24.151Z,50.64
2023-09-27T09:06:55.181Z,50.75
2023-09-27T09:09:27.708Z,50.78
2023-09-27T09:11:59.252Z,50.54
2023-09-27T09:14:44.524Z,49.87
2023-09-27T09:17:19.800Z,48.43
2023-09-27T09:20:17.490Z,48.59
2023-09-27T09:23:05.058Z,48.08
2023-09-27T09:25:44.538Z,47.96
2023-09-27T09:28:14.526Z,47.84
2023-09-27T09:30:48.110Z,47.70
2023-09-27T09:33:23.307Z,47.68
2023-09-27T09:35:54.310Z,47.20
2023-09-27T09:38:28.078Z,46.15
2023-09-27T09:41:00.660Z,46.11
2023-09-27T09:43:34.443Z,46.74
2023-09-27T09:46:10.293Z,47.27
2023-09-27T09:48:47.348Z,47.43
2023-09-27T09:51:17.579Z,47.38
2023-09-27T09:53:50.692Z,47.07
2023-09-27T09:56:30.528Z,47.15
2023-09-27T09:59:05.335Z,47.26
2023-09-27T10:01:38.322Z,46.08
2023-09-27T10:04:09.513Z,46.29
2023-09-27T10:06:49.047Z,46.22
2023-09-27T10:09:21.342Z,47.10
2023-09-27T10:11:50.092Z,47.20
2023-09-27T10:14:19.924Z,46.77
2023-09-27T10:16:51.681Z,47.46
2023-09-27T10:19:32.396Z,48.03
2023-09-27T10:22:09.420Z,48.86
2023-09-27T10:24:40.843Z,48.22
2023-09-27T10:27:09.095Z,47.54
2023-09-27T10:29:59.645Z,48.22
2023-09-27T10:32:29.795Z,49.09
2023-09-27T10:35:23.193Z,49.34
2023-09-27T10:38:05.811Z,48.61
2023-09-27T10:40:45.079Z,49.59
2023-09-27T10:43:15.791Z,49.01
2023-09-27T10:45:52.985Z,49.74
2023-09-27T10:48:25.859Z,48.91
2023-09-27T10:50:59.104Z,49.45
2023-09-27T10:53:28.471Z,51.31
2023-09-27T10:55:58.919Z,50.95
2023-09-27T10:58:29.554Z,49.75
2023-09-27T11:01:01.853Z,49.00
2023-09-27T11:03:34.513Z,49.64
2023-09-27T11:06:11.886Z,49.42
2023-09-27T11:08:46.701Z,48.80
2023-09-27T11:11:15.561Z,48.96
2023-09-27T11:13:44.655Z,48.58
2023-09-27T11:16:15.409Z,48.67
2023-09-27T11:18:50.118Z,48.59
2023-09-27T11:21:25.248Z,49.02
2023-09-27T11:23:55.272Z,48.89
2023-09-27T11:26:25.662Z,48.87
2023-09-27T11:29:03.503Z,48.73
2023-09-27T11:31:42.269Z,49.37
2023-09-27T11:34:16.392Z,49.96
2023-09-27T11:36:50.678Z,50.54
2023-09-27T11:39:20.692Z,49.48
2023-09-27T11:41:51.946Z,50.71
2023-09-27T11:44:23.471Z,50.40
2023-09-27T11:46:53.210Z,50.66
2023-09-27T11:49:28.850Z,49.73
2023-09-27T11:52:11.983Z,49.87
2023-09-27T11:54:43.542Z,49.49
2023-09-27T11:57:12.857Z,49.90
2023-09-27T11:59:43.022Z,50.07
2023-09-27T12:02:20.858Z,50.16
2023-09-27T12:04:53.297Z,51.13
2023-09-27T12:07:27.585Z,50.69
2023-09-27T12:09:58.658Z,51.52
2023-09-27T12:12:35.037Z,53.26
2023-09-27T12:15:04.741Z,53.60
2023-09-27T12:17:36.446Z,52.47
2023-09-27T12:20:07.562Z,52.22
2023-09-27T12:22:40.269Z,53.70
2023-09-27T12:25:09.697Z,53.66
2023-09-27T12:27:37.866Z,53.50
2023-09-27T12:30:07.306Z,53.48
2023-09-27T12:32:39.541Z,53.65
2023-09-27T12:35:08.623Z,53.63
2023-09-27T12:37:37.143Z,53.98
2023-09-27T12:40:09.172Z,53.74
2023-09-27T12:42:45.390Z,53.76
2023-09-27T12:45:13.570Z,54.11
2023-09-27T12:47:44.954Z,54.10
2023-09-27T12:50:21.449Z,53.47
2023-09-27T12:52:50.530Z,53.82
2023-09-27T12:55:22.586Z,54.46
2023-09-27T12:57:51.898Z,54.56
2023-09-27T13:00:22.688Z,54.93
2023-09-27T13:02:52.206Z,55.07
2023-09-27T13:05:23.173Z,54.33
2023-09-27T13:07:52.412Z,55.52
2023-09-27T13:10:24.434Z,54.82
2023-09-27T13:12:53.146Z,55.40
2023-09-27T13:15:22.053Z,55.40
2023-09-27T13:17:52.188Z,55.79
2023-09-27T13:20:24.044Z,55.34
2023-09-27T13:22:53.954Z,56.04
2023-09-27T13:25:28.422Z,55.98
2023-09-27T13:27:57.906Z,55.66
2023-09-27T13:30:35.577Z,56.12
2023-09-27T13:33:06.158Z,55.96
2023-09-27T13:35:37.237Z,56.59
2023-09-27T13:38:08.103Z,56.15
2023-09-27T13:40:38.244Z,56.22
2023-09-27T13:43:14.024Z,56.39
2023-09-27T13:45:47.349Z,56.84
2023-09-27T13:48:17.944Z,56.41
2023-09-27T13:50:50.506Z,56.90
2023-09-27T13:53:20.020Z,56.76
2023-09-27T13:55:51.534Z,57.10
2023-09-27T13:58:20.290Z,56.93
2023-09-27T14:00:49.158Z,56.75
2023-09-27T14:03:21.343Z,56.77
2023-09-27T14:05:53.044Z,56.56
2023-09-27T14:08:35.212Z,56.52
2023-09-27T14:11:04.783Z,56.43
2023-09-27T14:13:35.527Z,56.62
2023-09-27T14:16:07.821Z,56.48
2023-09-27T14:18:40.416Z,56.52
2023-09-27T14:21:12.412Z,56.40
2023-09-27T14:23:44.360Z,56.48
2023-09-27T14:26:22.043Z,56.64
2023-09-27T14:28:54.083Z,57.09
2023-09-27T14:31:30.163Z,56.79
2023-09-27T14:34:05.783Z,56.90
2023-09-27T14:36:39.104Z,57.01
2023-09-27T14:39:13.625Z,56.99
2023-09-27T14:41:54.614Z,57.17
2023-09-27T14:44:24.092Z,57.19
2023-09-27T14:46:59.627Z,57.34
2023-09-27T14:49:37.786Z,57.41
2023-09-27T14:52:09.875Z,57.50
2023-09-27T14:54:40.855Z,57.62
2023-09-27T14:57:18.190Z,57.44
2023-09-27T14:59:51.098Z,57.80
2023-09-27T15:02:28.938Z,57.90
2023-09-27T15:04:58.628Z,58.02
2023-09-27T15:07:27.675Z,58.11
2023-09-27T15:09:57.470Z,58.40
2023-09-27T15:12:31.841Z,58.65
2023-09-27T15:15:03.640Z,58.85
2023-09-27T15:17:42.000Z,59.06
2023-09-27T15:20:12.586Z,59.43
2023-09-27T15:22:49.271Z,59.68
2023-09-27T15:25:22.162Z,59.86
2023-09-27T15:27:54.711Z,60.07
2023-09-27T15:30:25.526Z,60.07
2023-09-27T15:32:56.385Z,60.29
2023-09-27T15:35:30.476Z,60.56
2023-09-27T15:38:03.267Z,60.84
2023-09-27T15:40:33.429Z,61.06
2023-09-27T15:43:04.841Z,61.28
2023-09-27T15:45:34.180Z,61.42
2023-09-27T15:48:10.316Z,61.58
2023-09-27T15:50:42.512Z,61.75
2023-09-27T15:53:13.906Z,61.92
2023-09-27T15:55:44.347Z,62.40
2023-09-27T15:58:16.400Z,62.77
2023-09-27T16:00:47.618Z,62.99
2023-09-27T16:03:21.495Z,63.29
2023-09-27T16:05:50.703Z,63.55
2023-09-27T16:08:23.256Z,63.61
2023-09-27T16:10:55.388Z,63.38
2023-09-27T16:13:32.211Z,63.43
2023-09-27T16:16:02.640Z,63.49
2023-09-27T16:18:32.330Z,63.68
2023-09-27T16:21:02.231Z,64.07
2023-09-27T16:23:31.111Z,64.50
2023-09-27T16:26:01.281Z,64.74
2023-09-27T16:28:32.235Z,65.05
2023-09-27T16:31:06.853Z,65.37
2023-09-27T16:33:40.019Z,65.06
2023-09-27T16:36:09.037Z,64.79
2023-09-27T16:38:45.187Z,65.12
2023-09-27T16:41:17.219Z,65.16
2023-09-27T16:43:51.119Z,65.26
2023-09-27T16:46:21.373Z,65.22
2023-09-27T16:48:52.579Z,65.60
2023-09-27T16:51:21.909Z,66.11
2023-09-27T16:53:50.076Z,66.10
2023-09-27T16:56:23.885Z,66.48
2023-09-27T16:58:53.785Z,66.77
2023-09-27T17:01:24.384Z,67.23
2023-09-27T17:03:55.044Z,67.65
2023-09-27T17:06:25.643Z,68.00
2023-09-27T17:08:57.012Z,68.35
2023-09-27T17:11:26.978Z,68.51
2023-09-27T17:13:57.666Z,68.84
2023-09-27T17:16:28.660Z,69.21
2023-09-27T17:18:58.138Z,69.56
2023-09-27T17:21:28.403Z,70.04
2023-09-27T17:23:58.633Z,70.53
2023-09-27T17:26:26.979Z,70.83
2023-09-27T17:28:59.323Z,71.44
2023-09-27T17:31:28.013Z,71.63
2023-09-27T17:33:58.318Z,71.86
2023-09-27T17:36:28.724Z,71.93
2023-09-27T17:38:57.082Z,72.19
2023-09-27T17:41:28.655Z,72.38
2023-09-27T17:44:00.301Z,72.50
2023-09-27T17:46:32.178Z,72.74
2023-09-27T17:49:01.971Z,72.97
2023-09-27T17:51:34.754Z,73.26
2023-09-27T17:54:04.383Z,73.53
2023-09-27T17:56:33.188Z,73.73
2023-09-27T17:59:05.919Z,73.76
2023-09-27T18:01:38.297Z,73.74
2023-09-27T18:04:09.441Z,74.01
2023-09-27T18:06:40.351Z,74.05
2023-09-27T18:09:12.337Z,74.18
2023-09-27T18:11:40.617Z,74.45
2023-09-27T18:14:10.688Z,74.74
2023-09-27T18:16:39.083Z,74.93
2023-09-27T18:19:07.850Z,75.09
2023-09-27T18:21:36.102Z,75.35
2023-09-27T18:24:05.851Z,75.44
2023-09-27T18:26:34.026Z,75.63
2023-09-27T18:29:03.729Z,75.80
2023-09-27T18:31:34.515Z,76.11
2023-09-27T18:34:04.124Z,76.25
2023-09-27T18:36:31.671Z,76.43
2023-09-27T18:38:59.898Z,76.54
2023-09-27T18:41:30.186Z,76.63
2023-09-27T18:43:59.960Z,76.80
2023-09-27T18:46:28.766Z,76.89
2023-09-27T18:49:01.321Z,76.98
2023-09-27T18:51:31.538Z,77.16
2023-09-27T18:53:59.836Z,77.37
2023-09-27T18:56:28.130Z,77.52
2023-09-27T18:59:00.120Z,77.58
2023-09-27T19:01:32.010Z,77.43
2023-09-27T19:04:04.553Z,77.38
2023-09-27T19:06:32.946Z,77.34
2023-09-27T19:09:03.830Z,77.21
2023-09-27T19:11:33.386Z,77.19
2023-09-27T19:14:03.493Z,77.05
2023-09-27T19:16:38.675Z,76.96
2023-09-27T19:19:09.834Z,77.04
2023-09-27T19:21:38.966Z,77.22
2023-09-27T19:24:08.728Z,77.30
2023-09-27T19:26:37.028Z,77.18
2023-09-27T19:29:05.772Z,77.14
2023-09-27T19:31:34.189Z,77.14
2023-09-27T19:34:02.997Z,77.02
2023-09-27T19:36:34.983Z,76.91
2023-09-27T19:39:03.126Z,76.89
2023-09-27T19:41:31.795Z,76.87
2023-09-27T19:44:00.429Z,76.80
2023-09-27T19:46:30.062Z,76.76
2023-09-27T19:48:58.160Z,76.87
2023-09-27T19:51:28.941Z,76.92
2023-09-27T19:54:03.468Z,76.78
2023-09-27T19:56:32.140Z,76.76
2023-09-27T19:59:01.440Z,76.68
2023-09-27T20:01:32.704Z,76.38
2023-09-27T20:04:01.782Z,76.34
2023-09-27T20:06:36.568Z,76.26
2023-09-27T20:09:10.532Z,76.32
2023-09-27T20:11:41.397Z,76.53
2023-09-27T20:14:12.929Z,76.67
2023-09-27T20:16:42.027Z,76.85
2023-09-27T20:19:10.808Z,77.11
2023-09-27T20:21:39.945Z,77.53
2023-09-27T20:24:10.673Z,77.80
2023-09-27T20:26:40.360Z,77.90
2023-09-27T20:29:10.486Z,78.05
2023-09-27T20:31:41.297Z,78.13
2023-09-27T20:34:09.449Z,78.04
2023-09-27T20:36:38.152Z,77.89
2023-09-27T20:39:07.281Z,77.76
2023-09-27T20:41:37.009Z,77.76
2023-09-27T20:44:06.612Z,77.71
2023-09-27T20:46:35.808Z,77.81
2023-09-27T20:49:06.296Z,77.82
2023-09-27T20:51:38.870Z,77.97
2023-09-27T20:54:08.100Z,78.09
2023-09-27T20:56:40.411Z,78.17
2023-09-27T20:59:09.293Z,78.29
2023-09-27T21:01:41.998Z,78.45
2023-09-27T21:04:11.550Z,78.57
2023-09-27T21:06:40.199Z,78.83
2023-09-27T21:09:08.622Z,78.90
2023-09-27T21:11:38.434Z,79.08
2023-09-27T21:14:07.546Z,79.28
2023-09-27T21:16:38.848Z,79.63
2023-09-27T21:19:07.353Z,79.64
2023-09-27T21:21:36.837Z,79.90
2023-09-27T21:24:06.256Z,80.00
2023-09-27T21:26:34.406Z,80.21
2023-09-27T21:29:04.945Z,80.39
2023-09-27T21:31:36.605Z,80.60
2023-09-27T21:34:04.789Z,80.75
2023-09-27T21:36:37.261Z,80.89
2023-09-27T21:39:05.640Z,81.08
2023-09-27T21:41:34.125Z,81.29
2023-09-27T21:44:03.109Z,81.42
2023-09-27T21:46:37.089Z,81.59
2023-09-27T21:49:07.334Z,81.56
2023-09-27T21:51:37.586Z,81.55
2023-09-27T21:54:07.643Z,81.63
2023-09-27T21:56:38.488Z,81.75
2023-09-27T21:59:07.402Z,81.80
2023-09-27T22:01:38.411Z,81.90
2023-09-27T22:04:08.410Z,81.93
2023-09-27T22:06:36.670Z,81.93
2023-09-27T22:09:05.859Z,81.96
2023-09-27T22:11:34.595Z,81.95
2023-09-27T22:14:06.409Z,81.97
2023-09-27T22:16:37.794Z,81.87
2023-09-27T22:19:12.616Z,81.87
2023-09-27T22:21:47.045Z,81.87
2023-09-27T22:24:22.199Z,81.99
2023-09-27T22:26:52.757Z,81.80
2023-09-27T22:29:21.860Z,81.83
2023-09-27T22:31:58.823Z,81.79
2023-09-27T22:34:38.595Z,81.65
2023-09-27T22:37:09.552Z,81.18
2023-09-27T22:39:41.729Z,81.14
2023-09-27T22:42:14.560Z,80.88
2023-09-27T22:44:44.831Z,80.79
2023-09-27T22:47:15.152Z,80.80
2023-09-27T22:49:43.418Z,80.59
2023-09-27T22:52:12.125Z,80.46
2023-09-27T22:54:41.813Z,80.62
2023-09-27T22:57:10.731Z,80.80
2023-09-27T22:59:39.932Z,80.88
2023-09-27T23:02:11.563Z,80.83
2023-09-27T23:04:42.696Z,81.08
2023-09-27T23:07:18.089Z,81.20
2023-09-27T23:09:48.397Z,81.42
2023-09-27T23:12:25.363Z,81.43
2023-09-27T23:15:11.756Z,81.72
2023-09-27T23:18:01.751Z,81.75
2023-09-27T23:20:32.604Z,81.80
2023-09-27T23:23:09.336Z,81.80
2023-09-27T23:25:52.714Z,81.82
2023-09-27T23:28:31.674Z,81.82
2023-09-27T23:31:12.620Z,81.82
2023-09-27T23:33:46.280Z,81.90
2023-09-27T23:36:24.983Z,82.11
2023-09-27T23:39:17.886Z,82.20
2023-09-27T23:41:50.146Z,82.57
2023-09-27T23:44:20.358Z,82.94
2023-09-27T23:46:52.435Z,83.20
2023-09-27T23:49:21.783Z,83.35
2023-09-27T23:51:55.207Z,83.39
2023-09-27T23:54:25.653Z,83.50
2023-09-27T23:57:00.364Z,83.47
2023-09-27T23:59:31.588Z,83.54
